Time;durP1;ratioP1;P1;durP2;ratioP2;P2;SDS_P1;SDS_P2;PMS_P1;PMS_P2;Temp;Humidity;BMP_temperature;BMP_pressure;BME280_temperature;BME280_humidity;BME280_pressure;Samples;Min_cycle;Max_cycle;Signal;HPM_P1;HPM_P2
2022/03/29 00:02:14;;;;;;;30.57;17.30;;;15.10;97.20;;;;;;5048363;28;20212;-34
2022/03/29 00:04:47;;;;;;;30.67;17.45;;;15.10;97.20;;;;;;5063484;28;20419;-34
2022/03/29 00:07:14;;;;;;;28.55;17.48;;;15.00;97.20;;;;;;5069360;28;20705;-34
2022/03/29 00:09:43;;;;;;;29.92;17.88;;;15.00;97.10;;;;;;5062455;28;20216;-34
2022/03/29 00:12:13;;;;;;;28.92;17.05;;;15.00;97.20;;;;;;5070555;28;20234;-34
2022/03/29 00:14:43;;;;;;;31.87;17.53;;;15.00;97.20;;;;;;5069343;28;20254;-35
2022/03/29 00:17:13;;;;;;;30.08;17.35;;;15.00;97.10;;;;;;5070962;28;20283;-34
2022/03/29 00:19:40;;;;;;;32.15;18.20;;;15.00;97.40;;;;;;5068984;28;20216;-34
2022/03/29 00:22:10;;;;;;;28.60;17.90;;;15.00;97.20;;;;;;5065433;28;20195;-34
2022/03/29 00:24:40;;;;;;;30.38;18.33;;;15.00;97.20;;;;;;5070350;28;20239;-34
2022/03/29 00:27:09;;;;;;;29.23;17.63;;;14.90;97.10;;;;;;5058324;28;20274;-34
2022/03/29 00:29:39;;;;;;;31.37;18.87;;;14.90;97.20;;;;;;5067328;28;20666;-34
2022/03/29 00:32:07;;;;;;;28.57;18.13;;;14.90;97.20;;;;;;5070190;28;20206;-34
2022/03/29 00:34:40;;;;;;;28.50;17.17;;;14.90;97.20;;;;;;5070132;28;20277;-34
2022/03/29 00:37:08;;;;;;;30.02;18.60;;;14.90;97.20;;;;;;5049817;28;20227;-34
2022/03/29 00:39:40;;;;;;;32.30;18.35;;;14.80;97.10;;;;;;5053394;28;20195;-34
2022/03/29 00:42:07;;;;;;;29.23;18.23;;;14.80;97.10;;;;;;5053656;28;20265;-34
2022/03/29 00:44:37;;;;;;;31.58;17.70;;;14.80;97.20;;;;;;5061841;28;20211;-34
2022/03/29 00:47:07;;;;;;;31.40;17.10;;;14.80;97.20;;;;;;5053796;28;20294;-34
2022/03/29 00:49:37;;;;;;;29.40;17.70;;;14.80;97.20;;;;;;5067133;28;20192;-30
2022/03/29 00:52:11;;;;;;;30.50;19.05;;;14.80;97.20;;;;;;5070446;28;20231;-31
2022/03/29 00:54:41;;;;;;;29.45;17.77;;;14.70;97.20;;;;;;5068362;28;20227;-30
2022/03/29 00:57:13;;;;;;;29.20;18.03;;;14.70;97.20;;;;;;5067114;28;20204;-31
2022/03/29 00:59:46;;;;;;;31.23;16.73;;;14.70;97.20;;;;;;5065092;28;20309;-30
2022/03/29 01:02:15;;;;;;;30.63;18.08;;;14.70;97.20;;;;;;5061394;28;20207;-30
2022/03/29 01:04:43;;;;;;;35.88;18.65;;;14.60;97.20;;;;;;5068447;28;20206;-30
2022/03/29 01:07:16;;;;;;;30.02;18.30;;;14.60;97.20;;;;;;5057999;28;20204;-30
2022/03/29 01:09:44;;;;;;;27.30;16.95;;;14.60;97.20;;;;;;5063462;28;20655;-30
2022/03/29 01:12:11;;;;;;;30.35;17.85;;;14.60;97.20;;;;;;5069059;28;20229;-30
2022/03/29 01:14:41;;;;;;;27.30;17.80;;;14.50;97.20;;;;;;5061607;28;20200;-30
2022/03/29 01:20:27;;;;;;;30.60;16.63;;;14.50;97.20;;;;;;5037593;28;20205;-31
2022/03/29 01:23:00;;;;;;;28.90;16.27;;;14.40;97.20;;;;;;5030228;28;20768;-30
2022/03/29 01:25:35;;;;;;;29.30;16.37;;;14.40;97.20;;;;;;5058545;28;20215;-31
2022/03/29 01:28:04;;;;;;;29.98;16.60;;;14.40;97.20;;;;;;5066743;28;20336;-30
2022/03/29 01:30:34;;;;;;;27.87;15.87;;;14.40;97.20;;;;;;5067502;28;20203;-31
2022/03/29 01:33:08;;;;;;;25.90;15.57;;;14.40;97.20;;;;;;5069366;28;20203;-30
2022/03/29 01:35:40;;;;;;;28.97;16.87;;;14.40;97.20;;;;;;5066163;28;20615;-30
2022/03/29 01:38:11;;;;;;;29.00;16.30;;;14.30;97.20;;;;;;5068426;28;20211;-30
2022/03/29 01:40:38;;;;;;;29.92;16.33;;;14.30;97.20;;;;;;5053971;28;20762;-30
2022/03/29 01:43:11;;;;;;;27.50;16.02;;;14.30;97.10;;;;;;5054543;28;20203;-31
2022/03/29 01:45:41;;;;;;;32.67;17.10;;;14.30;97.20;;;;;;5066850;28;20207;-30
2022/03/29 01:48:08;;;;;;;27.30;16.17;;;14.30;97.20;;;;;;5049312;28;20694;-30
2022/03/29 01:50:37;;;;;;;26.80;15.53;;;14.30;97.20;;;;;;5064427;28;20208;-31
2022/03/29 01:53:05;;;;;;;29.33;16.63;;;14.30;97.20;;;;;;5063064;28;20211;-31
2022/03/29 01:55:32;;;;;;;26.83;15.77;;;14.30;97.20;;;;;;5056171;28;20604;-30
2022/03/29 01:58:01;;;;;;;33.15;17.27;;;14.30;97.20;;;;;;5059529;28;20200;-31
2022/03/29 02:00:31;;;;;;;29.83;16.03;;;14.30;97.20;;;;;;5056829;28;20283;-31
2022/03/29 02:03:04;;;;;;;30.27;16.67;;;14.30;97.20;;;;;;5048648;28;20262;-31
2022/03/29 02:05:32;;;;;;;32.20;16.70;;;14.30;97.20;;;;;;5054657;28;20670;-30
2022/03/29 02:08:00;;;;;;;29.27;16.88;;;14.20;97.10;;;;;;5065830;28;20270;-30
2022/03/29 02:10:28;;;;;;;29.88;16.17;;;14.20;97.20;;;;;;5066759;28;20824;-31
2022/03/29 02:12:56;;;;;;;31.37;17.53;;;14.20;97.10;;;;;;5064963;28;20235;-31
2022/03/29 02:15:23;;;;;;;28.97;16.60;;;14.20;97.20;;;;;;5064144;28;20669;-31
2022/03/29 02:17:53;;;;;;;31.00;17.60;;;14.20;97.20;;;;;;5057905;28;20202;-30
2022/03/29 02:20:22;;;;;;;28.30;16.67;;;14.20;97.20;;;;;;5064382;28;20290;-30
2022/03/29 02:22:50;;;;;;;30.13;16.50;;;14.20;97.20;;;;;;5068606;28;20195;-30
2022/03/29 02:25:24;;;;;;;29.05;16.10;;;14.20;97.10;;;;;;5052754;28;20214;-30
2022/03/29 02:27:55;;;;;;;26.30;16.13;;;14.20;97.20;;;;;;5047936;28;20219;-31
2022/03/29 02:30:24;;;;;;;28.88;15.70;;;14.10;97.10;;;;;;5050963;28;20587;-31
2022/03/29 02:32:52;;;;;;;26.50;15.50;;;14.10;97.10;;;;;;5048385;28;20231;-30
2022/03/29 02:35:21;;;;;;;29.98;16.00;;;14.10;97.10;;;;;;5064068;28;20219;-31
2022/03/29 02:37:51;;;;;;;29.92;16.15;;;14.10;97.10;;;;;;5066131;28;20633;-31
2022/03/29 02:40:21;;;;;;;29.48;15.38;;;14.10;97.10;;;;;;5066172;28;20199;-31
2022/03/29 02:42:53;;;;;;;28.67;16.10;;;14.10;97.10;;;;;;5059689;28;20303;-34
2022/03/29 02:45:23;;;;;;;30.47;15.27;;;14.10;97.20;;;;;;5046387;28;20231;-34
2022/03/29 02:47:55;;;;;;;28.83;15.67;;;14.10;97.20;;;;;;5067237;28;20457;-34
2022/03/29 02:50:23;;;;;;;27.13;15.33;;;14.10;97.10;;;;;;5066926;28;20299;-30
2022/03/29 02:52:59;;;;;;;27.63;15.33;;;14.10;97.10;;;;;;5067233;28;20226;-31
2022/03/29 02:55:29;;;;;;;25.93;14.53;;;14.10;97.20;;;;;;5066241;28;20245;-31
2022/03/29 02:57:57;;;;;;;30.95;16.17;;;14.10;97.20;;;;;;5064521;28;20290;-31
2022/03/29 03:00:25;;;;;;;28.75;14.43;;;14.00;97.10;;;;;;5059924;28;20272;-31
2022/03/29 03:02:55;;;;;;;28.53;15.13;;;14.00;97.10;;;;;;5066300;28;20738;-31
2022/03/29 03:05:25;;;;;;;30.73;15.88;;;14.00;97.10;;;;;;5066984;28;20227;-31
2022/03/29 03:07:55;;;;;;;24.03;14.50;;;14.00;97.20;;;;;;5062077;28;20232;-31
2022/03/29 03:10:23;;;;;;;30.13;15.82;;;14.00;97.20;;;;;;5034094;28;20352;-30
2022/03/29 03:12:53;;;;;;;28.60;15.05;;;14.00;97.20;;;;;;5065825;28;20195;-31
2022/03/29 03:15:22;;;;;;;28.50;14.90;;;14.00;97.20;;;;;;5064156;28;20227;-31
2022/03/29 03:17:54;;;;;;;29.75;16.02;;;14.00;97.20;;;;;;5049611;28;20225;-31
2022/03/29 03:20:26;;;;;;;26.38;15.88;;;14.00;97.30;;;;;;5050525;28;20690;-31
2022/03/29 03:22:58;;;;;;;25.08;14.65;;;13.90;97.10;;;;;;5061951;28;20228;-31
2022/03/29 03:25:28;;;;;;;28.13;14.77;;;13.90;97.10;;;;;;5061565;28;20204;-31
2022/03/29 03:27:55;;;;;;;25.73;14.60;;;13.90;97.10;;;;;;5064257;28;20235;-31
2022/03/29 03:30:25;;;;;;;28.50;14.63;;;13.90;97.10;;;;;;5062665;28;20209;-31
2022/03/29 03:32:54;;;;;;;30.88;15.13;;;13.90;97.20;;;;;;5048016;28;20697;-31
2022/03/29 03:35:23;;;;;;;29.27;15.47;;;13.80;97.20;;;;;;5045638;28;20212;-31
2022/03/29 03:37:50;;;;;;;26.07;15.20;;;13.80;97.20;;;;;;5060854;28;20223;-31
2022/03/29 03:40:18;;;;;;;33.43;16.90;;;13.80;97.20;;;;;;5071394;28;20297;-31
2022/03/29 03:42:47;;;;;;;30.60;14.80;;;13.80;97.20;;;;;;5070355;28;20225;-31
2022/03/29 03:45:15;;;;;;;26.40;15.98;;;13.80;97.20;;;;;;5069651;28;20234;-31
2022/03/29 03:47:42;;;;;;;28.60;15.77;;;13.80;97.20;;;;;;5052715;28;20249;-31
2022/03/29 03:50:12;;;;;;;25.90;14.53;;;13.80;97.20;;;;;;5055423;28;20253;-31
2022/03/29 03:52:39;;;;;;;24.00;13.73;;;13.80;97.20;;;;;;5052958;28;20223;-34
2022/03/29 03:55:08;;;;;;;27.97;14.87;;;13.70;97.10;;;;;;5061785;28;20262;-34
2022/03/29 03:57:36;;;;;;;23.42;14.38;;;13.70;97.20;;;;;;5070697;28;20697;-34
2022/03/29 04:00:08;;;;;;;26.30;15.23;;;13.70;97.10;;;;;;5070029;28;20208;-34
2022/03/29 04:02:38;;;;;;;28.33;15.00;;;13.70;97.20;;;;;;5068484;28;20237;-34
2022/03/29 04:05:13;;;;;;;26.83;14.97;;;13.60;97.10;;;;;;5058970;28;20270;-34
2022/03/29 04:07:45;;;;;;;33.70;15.80;;;13.60;97.10;;;;;;5060994;28;20592;-34
2022/03/29 04:10:15;;;;;;;28.20;15.40;;;13.60;97.10;;;;;;5062644;28;20196;-34
2022/03/29 04:12:42;;;;;;;25.50;15.23;;;13.50;97.10;;;;;;5069526;28;20215;-34
2022/03/29 04:15:12;;;;;;;28.35;16.02;;;13.50;97.10;;;;;;5069778;28;20216;-34
2022/03/29 04:17:41;;;;;;;32.00;15.40;;;13.50;97.20;;;;;;5062949;28;20258;-34
2022/03/29 04:20:12;;;;;;;27.70;16.17;;;13.50;97.20;;;;;;5050588;28;20638;-34
2022/03/29 04:22:39;;;;;;;29.70;15.37;;;13.50;97.20;;;;;;5052620;28;20216;-34
2022/03/29 04:25:10;;;;;;;26.83;15.98;;;13.40;97.20;;;;;;5059713;28;20698;-34
2022/03/29 04:27:44;;;;;;;31.85;15.25;;;13.40;97.20;;;;;;5056517;28;20212;-34
2022/03/29 04:30:11;;;;;;;30.80;16.07;;;13.40;97.20;;;;;;5058828;28;20222;-34
2022/03/29 04:32:43;;;;;;;27.25;15.75;;;13.40;97.20;;;;;;5064782;28;20243;-31
2022/03/29 04:35:13;;;;;;;27.92;16.15;;;13.30;97.20;;;;;;5058249;28;20286;-31
2022/03/29 04:37:46;;;;;;;28.27;15.40;;;13.30;97.20;;;;;;5070519;28;20207;-31
2022/03/29 04:40:13;;;;;;;26.15;15.25;;;13.30;97.20;;;;;;5062926;28;20288;-34
2022/03/29 04:42:53;;;;;;;26.47;16.27;;;13.30;97.20;;;;;;5064608;28;20195;-34
2022/03/29 04:45:22;;;;;;;29.13;16.40;;;13.30;97.30;;;;;;5066130;28;20289;-35
2022/03/29 04:47:50;;;;;;;27.27;16.05;;;13.30;97.20;;;;;;5068080;28;20251;-34
2022/03/29 04:50:19;;;;;;;32.23;15.70;;;13.20;97.20;;;;;;5061425;28;20295;-34
2022/03/29 04:52:49;;;;;;;27.00;15.20;;;13.20;97.20;;;;;;5050303;28;20283;-34
2022/03/29 04:55:18;;;;;;;26.13;15.50;;;13.20;97.20;;;;;;5050150;28;20232;-34
2022/03/29 04:57:49;;;;;;;26.20;15.93;;;13.20;97.30;;;;;;5055401;28;20709;-34
2022/03/29 05:00:21;;;;;;;28.90;16.23;;;13.20;97.60;;;;;;5057577;28;20680;-34
2022/03/29 05:02:49;;;;;;;29.17;15.57;;;13.20;97.30;;;;;;5059618;28;20200;-34
2022/03/29 05:05:18;;;;;;;34.37;16.47;;;13.20;97.30;;;;;;5064575;28;20215;-34
2022/03/29 05:07:48;;;;;;;29.83;15.90;;;13.20;97.30;;;;;;5068269;28;20203;-34
2022/03/29 05:10:15;;;;;;;31.53;16.67;;;13.10;97.30;;;;;;5061596;28;20208;-34
2022/03/29 05:12:49;;;;;;;34.37;16.90;;;13.10;97.50;;;;;;5057369;28;20260;-34
2022/03/29 05:15:19;;;;;;;38.40;18.10;;;13.10;97.20;;;;;;5059969;28;20666;-31
2022/03/29 05:17:51;;;;;;;36.25;17.45;;;13.10;97.40;;;;;;5054932;28;20220;-31
2022/03/29 05:20:22;;;;;;;29.37;17.10;;;13.00;97.30;;;;;;5062854;28;20230;-31
2022/03/29 05:22:55;;;;;;;38.37;16.13;;;13.00;97.30;;;;;;5067530;28;20218;-31
2022/03/29 05:25:24;;;;;;;27.23;15.53;;;13.00;97.30;;;;;;5066323;28;20196;-31
2022/03/29 05:27:57;;;;;;;39.40;17.77;;;13.00;97.30;;;;;;5068190;28;20235;-31
2022/03/29 05:30:28;;;;;;;33.80;17.83;;;13.00;97.30;;;;;;5069136;28;20231;-31
2022/03/29 05:33:00;;;;;;;31.00;15.83;;;13.00;97.40;;;;;;5057395;28;20315;-35
2022/03/29 05:35:32;;;;;;;32.50;17.50;;;13.00;97.30;;;;;;5065906;28;20208;-31
2022/03/29 05:38:05;;;;;;;30.20;15.73;;;12.90;97.30;;;;;;5055772;28;20297;-30
2022/03/29 05:40:32;;;;;;;27.50;15.70;;;12.90;97.30;;;;;;5056269;28;20234;-30
2022/03/29 05:42:59;;;;;;;29.80;17.02;;;12.90;97.30;;;;;;5054008;28;20312;-31
2022/03/29 05:45:29;;;;;;;32.13;16.17;;;12.90;97.30;;;;;;5067316;28;20278;-33
2022/03/29 05:50:46;;;;;;;32.00;16.53;;;12.80;97.30;;;;;;5055326;28;20738;-34
2022/03/29 05:53:14;;;;;;;33.77;16.77;;;12.80;97.30;;;;;;5059023;28;20272;-34
2022/03/29 05:55:45;;;;;;;30.90;17.27;;;12.80;97.30;;;;;;5054570;28;20212;-34
2022/03/29 05:58:16;;;;;;;28.37;16.87;;;12.80;97.30;;;;;;5051683;28;20207;-34
2022/03/29 06:00:44;;;;;;;33.70;16.83;;;12.80;97.40;;;;;;5056725;28;20748;-34
2022/03/29 06:03:11;;;;;;;31.07;16.53;;;12.80;97.40;;;;;;5050968;28;20298;-34
2022/03/29 06:05:46;;;;;;;33.53;17.63;;;12.70;97.40;;;;;;5054886;28;20204;-34
2022/03/29 06:08:13;;;;;;;33.07;17.27;;;12.70;97.40;;;;;;5059785;28;20887;-34
2022/03/29 06:10:41;;;;;;;30.87;17.43;;;12.70;97.40;;;;;;5063795;28;20208;-34
2022/03/29 06:13:09;;;;;;;28.20;17.20;;;12.70;97.40;;;;;;5050095;28;20192;-31
2022/03/29 06:15:38;;;;;;;33.00;16.77;;;12.70;97.40;;;;;;5054487;28;20751;-31
2022/03/29 06:18:08;;;;;;;29.73;16.47;;;12.70;97.40;;;;;;5057822;28;20223;-31
2022/03/29 06:20:35;;;;;;;27.37;16.10;;;12.70;97.40;;;;;;5062977;28;20623;-31
2022/03/29 06:23:03;;;;;;;31.73;16.53;;;12.70;97.50;;;;;;5061967;28;20219;-31
2022/03/29 06:25:37;;;;;;;29.17;16.60;;;12.70;97.50;;;;;;5062734;28;20647;-31
2022/03/29 06:28:04;;;;;;;28.07;16.40;;;12.70;97.50;;;;;;5059748;28;20214;-31
2022/03/29 06:30:32;;;;;;;27.97;16.23;;;12.70;97.50;;;;;;5057410;28;20224;-31
2022/03/29 06:33:00;;;;;;;31.53;16.37;;;12.80;97.60;;;;;;5055856;28;20205;-31
2022/03/29 06:35:28;;;;;;;37.23;17.57;;;12.80;97.60;;;;;;5062998;28;21966;-31
2022/03/29 06:38:00;;;;;;;32.77;16.50;;;12.80;97.60;;;;;;5058877;28;20585;-31
2022/03/29 06:40:31;;;;;;;33.73;17.33;;;12.90;97.70;;;;;;5064545;28;20200;-31
2022/03/29 06:42:58;;;;;;;33.63;17.83;;;12.90;97.70;;;;;;5063690;28;20281;-31
2022/03/29 06:45:31;;;;;;;36.87;17.67;;;12.90;97.70;;;;;;5064799;28;20199;-31
2022/03/29 06:48:01;;;;;;;34.17;16.53;;;12.90;97.70;;;;;;5047921;28;20204;-31
2022/03/29 06:50:28;;;;;;;32.03;17.00;;;13.00;97.80;;;;;;5052873;28;20296;-31
2022/03/29 06:53:00;;;;;;;30.40;16.80;;;13.00;97.80;;;;;;5062335;28;20250;-31
2022/03/29 06:55:30;;;;;;;32.00;17.70;;;13.10;97.90;;;;;;5046889;28;20248;-31
2022/03/29 06:57:57;;;;;;;31.47;17.03;;;13.10;97.90;;;;;;5065018;28;20233;-31
2022/03/29 07:00:27;;;;;;;32.27;17.03;;;13.10;97.90;;;;;;5065416;28;20210;-31
2022/03/29 07:02:56;;;;;;;27.92;15.55;;;13.10;97.90;;;;;;5067071;28;20701;-31
2022/03/29 07:05:27;;;;;;;36.42;16.90;;;13.10;97.90;;;;;;5067155;28;20571;-31
2022/03/29 07:07:59;;;;;;;32.87;17.27;;;13.10;98.00;;;;;;5053389;28;20227;-31
2022/03/29 07:13:14;;;;;;;31.13;17.53;;;13.20;98.00;;;;;;5062931;28;20207;-31
2022/03/29 07:15:44;;;;;;;30.23;16.80;;;13.30;98.10;;;;;;5063975;28;20716;-31
2022/03/29 07:18:15;;;;;;;26.27;17.00;;;13.30;98.10;;;;;;5064024;28;20741;-31
2022/03/29 07:20:45;;;;;;;28.53;17.17;;;13.40;98.10;;;;;;5060376;28;20290;-31
2022/03/29 07:23:12;;;;;;;31.10;17.20;;;13.40;98.20;;;;;;5047651;28;20759;-31
2022/03/29 07:25:42;;;;;;;37.07;18.83;;;13.40;98.20;;;;;;5064533;28;20287;-31
2022/03/29 07:28:12;;;;;;;33.20;17.70;;;13.50;98.30;;;;;;5059989;28;20203;-31
2022/03/29 07:30:43;;;;;;;29.80;17.07;;;13.50;98.30;;;;;;5065177;28;20211;-31
2022/03/29 07:33:13;;;;;;;30.83;17.63;;;13.50;98.30;;;;;;5064961;28;20257;-31
2022/03/29 07:35:40;;;;;;;34.03;18.20;;;13.50;98.30;;;;;;5059565;28;20309;-31
2022/03/29 07:38:09;;;;;;;46.13;20.73;;;13.60;98.30;;;;;;5056885;28;20228;-31
2022/03/29 07:40:38;;;;;;;45.70;18.33;;;13.60;98.30;;;;;;5056323;28;20600;-31
2022/03/29 07:43:08;;;;;;;45.17;19.97;;;13.70;98.40;;;;;;5058841;28;20211;-31
2022/03/29 07:45:36;;;;;;;41.43;19.80;;;13.70;98.40;;;;;;5076430;28;20238;-31
2022/03/29 07:48:04;;;;;;;42.40;20.23;;;13.80;98.50;;;;;;5055225;28;20770;-31
2022/03/29 07:50:51;;;;;;;45.13;19.67;;;13.80;98.50;;;;;;5052275;28;20226;-31
2022/03/29 07:53:24;;;;;;;33.03;19.37;;;13.80;98.50;;;;;;5063077;28;20246;-32
2022/03/29 07:55:53;;;;;;;39.67;20.53;;;13.90;98.60;;;;;;5066664;28;20195;-32
2022/03/29 07:58:24;;;;;;;46.03;21.25;;;13.90;98.60;;;;;;5055111;28;20676;-32
2022/03/29 08:00:53;;;;;;;52.60;22.17;;;14.00;98.70;;;;;;5059773;28;20225;-32
2022/03/29 08:03:21;;;;;;;65.27;24.83;;;14.10;98.70;;;;;;5049850;28;20208;-32
2022/03/29 08:05:54;;;;;;;47.92;20.95;;;14.20;98.80;;;;;;5046173;28;20706;-32
2022/03/29 08:08:26;;;;;;;60.17;23.27;;;14.20;98.80;;;;;;5061660;28;20215;-32
2022/03/29 08:10:54;;;;;;;52.00;21.83;;;14.30;98.90;;;;;;5057307;28;20266;-32
2022/03/29 08:13:24;;;;;;;42.70;21.13;;;14.40;99.00;;;;;;5061629;28;20386;-32
2022/03/29 08:15:53;;;;;;;34.85;19.00;;;14.40;99.00;;;;;;5058506;28;20290;-32
2022/03/29 08:18:21;;;;;;;33.38;19.08;;;14.50;99.00;;;;;;5063580;28;20277;-32
2022/03/29 08:20:53;;;;;;;36.60;21.42;;;14.60;99.10;;;;;;5065333;28;20301;-32
2022/03/29 08:23:24;;;;;;;41.15;20.83;;;14.70;99.10;;;;;;5044164;28;20214;-32
2022/03/29 08:25:53;;;;;;;37.13;20.13;;;14.70;99.20;;;;;;5068072;28;20223;-32
2022/03/29 08:28:21;;;;;;;39.25;21.15;;;14.80;99.20;;;;;;5068243;28;20250;-32
2022/03/29 08:30:49;;;;;;;35.67;20.40;;;14.80;99.20;;;;;;5058366;28;20319;-32
2022/03/29 08:33:20;;;;;;;35.00;19.97;;;14.90;99.20;;;;;;5065240;28;20277;-32
2022/03/29 08:35:49;;;;;;;33.75;20.05;;;15.00;99.30;;;;;;5067746;28;20203;-35
2022/03/29 08:38:19;;;;;;;39.47;20.77;;;15.10;99.30;;;;;;5060970;28;20234;-36
2022/03/29 08:40:57;;;;;;;30.95;19.60;;;15.10;99.40;;;;;;5056472;28;20233;-35
2022/03/29 08:43:30;;;;;;;28.65;18.33;;;15.20;99.40;;;;;;5062947;28;20231;-36
2022/03/29 08:45:59;;;;;;;34.58;21.60;;;15.30;99.50;;;;;;5063923;28;20316;-35
2022/03/29 08:48:29;;;;;;;38.80;21.63;;;15.30;99.50;;;;;;5057075;28;20223;-36
2022/03/29 08:51:00;;;;;;;36.27;20.70;;;15.40;99.60;;;;;;5069218;28;20758;-36
2022/03/29 08:53:50;;;;;;;35.22;21.05;;;15.50;99.60;;;;;;5069826;28;20231;-32
2022/03/29 08:56:40;;;;;;;43.47;22.23;;;15.60;99.70;;;;;;5068814;28;20306;-32
2022/03/29 08:59:09;;;;;;;51.05;21.67;;;15.60;99.70;;;;;;5065537;28;20188;-32
2022/03/29 09:01:37;;;;;;;46.78;22.52;;;15.70;99.70;;;;;;5069549;28;20852;-32
2022/03/29 09:04:20;;;;;;;45.05;20.70;;;15.70;99.70;;;;;;5069447;28;20233;-32
2022/03/29 09:06:50;;;;;;;37.78;21.20;;;15.80;99.80;;;;;;5060568;28;20226;-32
2022/03/29 09:09:29;;;;;;;39.63;22.42;;;15.90;99.80;;;;;;5070073;28;20248;-32
2022/03/29 09:12:17;;;;;;;34.88;21.45;;;16.00;99.90;;;;;;5069661;28;20200;-31
2022/03/29 09:15:03;;;;;;;35.90;21.23;;;16.00;99.90;;;;;;5072957;28;20219;-32
2022/03/29 09:17:38;;;;;;;34.50;20.92;;;16.10;99.90;;;;;;5065769;28;20592;-32
2022/03/29 09:20:16;;;;;;;35.15;20.50;;;16.10;99.90;;;;;;5061272;28;20715;-32
2022/03/29 09:22:46;;;;;;;33.88;20.73;;;16.10;99.80;;;;;;5065936;28;20283;-32
2022/03/29 09:25:18;;;;;;;32.83;21.63;;;16.20;99.90;;;;;;5068746;28;20688;-32
2022/03/29 09:27:55;;;;;;;36.30;21.55;;;16.20;99.90;;;;;;5052469;28;20557;-32
2022/03/29 09:30:27;;;;;;;32.95;20.85;;;16.20;99.80;;;;;;5070760;28;20689;-32
2022/03/29 09:33:04;;;;;;;30.58;21.38;;;16.20;99.80;;;;;;5068592;28;20214;-32
2022/03/29 09:35:33;;;;;;;33.92;20.63;;;16.30;99.90;;;;;;5064527;28;20249;-32
2022/03/29 09:38:01;;;;;;;32.70;21.08;;;16.30;99.90;;;;;;5054590;28;20215;-32
2022/03/29 09:40:38;;;;;;;36.30;21.55;;;16.30;99.90;;;;;;5051707;28;20196;-32
2022/03/29 09:43:08;;;;;;;29.45;20.38;;;16.40;99.90;;;;;;5049020;28;20212;-32
2022/03/29 09:45:44;;;;;;;35.83;21.02;;;16.40;99.90;;;;;;5055047;28;20195;-32
2022/03/29 09:48:32;;;;;;;31.92;20.67;;;16.40;99.90;;;;;;5063686;28;20674;-32
2022/03/29 09:51:08;;;;;;;31.60;21.95;;;16.50;99.80;;;;;;5052470;28;20220;-36
2022/03/29 09:53:41;;;;;;;33.72;22.20;;;16.50;99.80;;;;;;5074647;28;20343;-36
2022/03/29 09:56:15;;;;;;;33.10;20.40;;;16.50;99.70;;;;;;5054811;28;20697;-35
2022/03/29 09:59:05;;;;;;;36.75;19.20;;;16.50;99.70;;;;;;5051058;28;20679;-35
2022/03/29 10:01:46;;;;;;;31.58;20.65;;;16.50;99.70;;;;;;5056925;28;20693;-36
2022/03/29 10:04:17;;;;;;;31.90;19.58;;;16.50;99.80;;;;;;5063021;28;20215;-36
2022/03/29 10:06:47;;;;;;;29.80;20.20;;;16.50;99.70;;;;;;5065404;28;20235;-36
2022/03/29 10:09:33;;;;;;;35.25;20.23;;;16.60;99.80;;;;;;5078771;28;20199;-36
2022/03/29 10:12:10;;;;;;;28.23;18.38;;;16.60;99.70;;;;;;5072501;28;20210;-32
2022/03/29 10:14:43;;;;;;;31.58;19.17;;;16.60;99.80;;;;;;5075134;28;20699;-32
2022/03/29 10:17:11;;;;;;;34.45;20.80;;;16.60;99.70;;;;;;5074187;28;20222;-32
2022/03/29 10:19:44;;;;;;;30.35;19.58;;;16.70;99.80;;;;;;5060062;28;20202;-32
2022/03/29 10:22:14;;;;;;;26.70;18.88;;;16.70;99.70;;;;;;5048912;28;20270;-32
2022/03/29 10:24:44;;;;;;;30.65;19.17;;;16.70;99.80;;;;;;5058953;28;20218;-32
2022/03/29 10:27:17;;;;;;;27.13;17.83;;;16.70;99.70;;;;;;5074385;28;20611;-36
2022/03/29 10:29:51;;;;;;;27.88;17.55;;;16.80;99.70;;;;;;5058463;28;20278;-35
2022/03/29 10:32:29;;;;;;;27.92;17.30;;;16.80;99.80;;;;;;5066316;28;20201;-36
2022/03/29 10:35:08;;;;;;;28.45;17.83;;;16.80;99.70;;;;;;5080664;28;20221;-35
2022/03/29 10:37:59;;;;;;;32.65;18.52;;;16.90;99.60;;;;;;5087173;28;20656;-36
2022/03/29 10:40:37;;;;;;;35.42;19.25;;;16.90;99.50;;;;;;5054689;28;20714;-35
2022/03/29 10:43:30;;;;;;;31.67;20.38;;;16.90;99.60;;;;;;5058848;28;20200;-35
2022/03/29 10:45:58;;;;;;;29.90;18.80;;;16.90;99.40;;;;;;5061777;28;20200;-35
2022/03/29 10:48:28;;;;;;;28.70;18.38;;;16.90;99.60;;;;;;5053194;28;20200;-35
2022/03/29 10:51:02;;;;;;;25.58;17.40;;;17.00;99.70;;;;;;5048928;28;20681;-35
2022/03/29 10:53:33;;;;;;;28.98;17.50;;;17.10;99.80;;;;;;5071426;28;20239;-35
2022/03/29 10:56:19;;;;;;;36.42;18.50;;;17.10;99.80;;;;;;5064734;28;20310;-35
2022/03/29 10:59:09;;;;;;;31.80;18.83;;;17.20;99.80;;;;;;5064040;28;20216;-35
2022/03/29 11:01:39;;;;;;;37.75;17.92;;;17.20;99.80;;;;;;5048405;28;20688;-35
2022/03/29 11:04:27;;;;;;;26.77;17.27;;;17.30;99.70;;;;;;5057917;28;20611;-36
2022/03/29 11:07:08;;;;;;;27.58;18.33;;;17.30;99.80;;;;;;5052662;28;20235;-35
2022/03/29 11:09:40;;;;;;;35.83;18.38;;;17.40;99.80;;;;;;5064738;28;20202;-36
2022/03/29 11:12:40;;;;;;;35.65;19.05;;;17.50;99.90;;;;;;5066806;28;20294;-36
2022/03/29 11:15:36;;;;;;;28.40;17.27;;;17.50;99.80;;;;;;5068249;28;20207;-36
2022/03/29 11:18:35;;;;;;;28.77;16.73;;;17.60;99.80;;;;;;5083047;28;20230;-35
2022/03/29 11:21:04;;;;;;;27.55;16.20;;;17.60;99.80;;;;;;5061490;28;20212;-36
2022/03/29 11:23:34;;;;;;;25.85;17.42;;;17.70;99.90;;;;;;5055504;28;20646;-36
2022/03/29 11:26:20;;;;;;;28.30;18.05;;;17.70;99.90;;;;;;5049930;28;20224;-36
2022/03/29 11:28:51;;;;;;;27.85;17.00;;;17.80;99.70;;;;;;5060646;28;20649;-36
2022/03/29 11:31:23;;;;;;;25.80;16.85;;;17.80;99.80;;;;;;5054103;28;20196;-36
2022/03/29 11:33:56;;;;;;;24.65;16.00;;;17.80;99.60;;;;;;5054139;28;20230;-36
2022/03/29 11:36:28;;;;;;;29.02;17.52;;;17.80;99.50;;;;;;5066640;28;20294;-36
2022/03/29 11:38:58;;;;;;;26.63;16.92;;;17.80;99.40;;;;;;5066527;28;20220;-37
2022/03/29 11:41:30;;;;;;;25.05;16.45;;;17.80;99.30;;;;;;5065628;28;20746;-36
2022/03/29 11:44:03;;;;;;;26.08;16.42;;;17.80;99.30;;;;;;5051813;28;20673;-36
2022/03/29 11:46:49;;;;;;;34.88;17.42;;;17.70;99.30;;;;;;5053862;28;20195;-36
2022/03/29 11:49:26;;;;;;;24.08;15.20;;;17.80;99.40;;;;;;5066526;28;20207;-36
2022/03/29 11:52:03;;;;;;;24.73;15.15;;;17.80;99.40;;;;;;5066247;28;20223;-36
2022/03/29 11:54:37;;;;;;;29.45;15.48;;;17.90;99.50;;;;;;5066691;28;20325;-36
2022/03/29 11:57:35;;;;;;;21.75;14.55;;;17.90;99.50;;;;;;5067711;28;20510;-36
2022/03/29 12:00:04;;;;;;;33.60;15.63;;;18.00;99.60;;;;;;5069539;28;20313;-36
2022/03/29 12:02:42;;;;;;;35.20;16.30;;;18.00;99.50;;;;;;5070088;28;20199;-36
2022/03/29 12:05:18;;;;;;;28.02;15.82;;;18.10;99.60;;;;;;5069584;28;20279;-36
2022/03/29 12:07:46;;;;;;;22.23;12.75;;;18.10;99.40;;;;;;5070084;28;20199;-36
2022/03/29 12:10:34;;;;;;;19.80;11.50;;;18.10;99.20;;;;;;5070646;28;20219;-36
2022/03/29 12:13:16;;;;;;;22.67;13.13;;;18.10;99.00;;;;;;5068641;28;20211;-35
2022/03/29 12:15:46;;;;;;;21.30;13.57;;;18.10;99.10;;;;;;5070316;28;20207;-35
2022/03/29 12:18:45;;;;;;;20.08;14.25;;;18.20;99.20;;;;;;5070196;28;20231;-36
2022/03/29 12:21:14;;;;;;;21.77;13.75;;;18.20;99.00;;;;;;5051727;28;20677;-35
2022/03/29 12:23:44;;;;;;;28.48;15.35;;;18.20;99.10;;;;;;5050779;28;20254;-35
2022/03/29 12:26:13;;;;;;;22.42;13.05;;;18.20;98.90;;;;;;5056592;28;21009;-35
2022/03/29 12:28:42;;;;;;;23.15;13.35;;;18.30;99.10;;;;;;5069646;28;20732;-35
2022/03/29 12:31:13;;;;;;;21.10;12.85;;;18.30;99.00;;;;;;5066232;28;20634;-34
2022/03/29 12:33:44;;;;;;;23.75;13.73;;;18.30;99.10;;;;;;5059486;28;20876;-35
2022/03/29 12:36:15;;;;;;;19.00;13.32;;;18.30;98.90;;;;;;5061252;28;20666;-35
2022/03/29 12:38:50;;;;;;;19.80;13.57;;;18.40;99.20;;;;;;5054639;28;20232;-35
2022/03/29 12:41:41;;;;;;;22.65;14.20;;;18.40;98.90;;;;;;5060040;28;20206;-35
2022/03/29 12:44:11;;;;;;;24.52;15.63;;;18.50;99.10;;;;;;5067091;28;20211;-35
2022/03/29 12:46:43;;;;;;;20.63;14.02;;;18.50;99.10;;;;;;5069760;28;20230;-35
2022/03/29 12:49:13;;;;;;;25.45;15.00;;;18.50;99.20;;;;;;5075392;28;20203;-35
2022/03/29 12:51:51;;;;;;;27.73;15.20;;;18.60;99.10;;;;;;5068882;28;20551;-30
2022/03/29 12:54:19;;;;;;;22.77;14.85;;;18.70;99.20;;;;;;5070493;28;20342;-30
2022/03/29 12:56:49;;;;;;;19.83;14.10;;;18.70;98.80;;;;;;5068078;28;20250;-30
2022/03/29 12:59:28;;;;;;;20.25;14.40;;;18.70;99.00;;;;;;5066781;28;20628;-30
2022/03/29 13:02:19;;;;;;;19.40;13.50;;;18.70;99.00;;;;;;5069394;28;20211;-30